Calico Basin, Nevada
Current Conditions -  °F | °C
As of 12:56 AM on Thursday 27 Nov 2014 (Local Time) from KHND Reporting Station
Clear Clear  
Wind Chill:   Ceiling: Unl
Heat Index:   Visibility: 10mi
Dew Point: -8°   Wind: 9mph
Humidity: 34%   Direction: 160°SSE
Pressure: 30.32"   Gusts: NA
Location:  35.8437°N, 115.134°W
Report Text: KHND 270856Z AUTO 16008KT 10SM CLR 07/M08 A3032 RMK AO2 58007 T00721077 SLP263
Loading
Personal Weather Stations






























Interactive Weather Map New forecast layout! Learn more

10-Day Weather Forecast

Advertisements
Track Severe Weather on mobile